createdAt,value
2019-05-18T00:00:26.265Z,0.00
2019-05-18T00:01:26.413Z,0.00
2019-05-18T00:02:26.616Z,0.00
2019-05-18T00:03:26.788Z,0.00
2019-05-18T00:04:26.972Z,0.00
2019-05-18T00:05:27.148Z,0.00
2019-05-18T00:06:27.365Z,0.00
2019-05-18T00:07:27.574Z,0.00
2019-05-18T00:08:27.754Z,0.00
2019-05-18T00:09:28.586Z,0.00
2019-05-18T00:10:28.147Z,0.00
2019-05-18T00:11:28.341Z,0.00
2019-05-18T00:12:28.504Z,0.00
2019-05-18T00:13:28.721Z,0.00
2019-05-18T00:14:29.603Z,0.00
2019-05-18T00:15:28.990Z,0.00
2019-05-18T00:16:30.088Z,0.00
2019-05-18T00:17:29.411Z,0.00
2019-05-18T00:18:29.526Z,0.00
2019-05-18T00:19:29.747Z,0.00
2019-05-18T00:20:29.998Z,0.00
2019-05-18T00:21:30.184Z,0.00
2019-05-18T00:22:30.363Z,0.00
2019-05-18T00:23:30.556Z,0.00
2019-05-18T00:24:30.742Z,0.00
2019-05-18T00:25:30.955Z,0.00
2019-05-18T00:26:32.084Z,0.00
2019-05-18T00:27:31.356Z,0.00
2019-05-18T00:28:31.545Z,0.00
2019-05-18T00:29:32.589Z,0.00
2019-05-18T00:30:31.901Z,0.00
2019-05-18T00:31:32.020Z,0.00
2019-05-18T00:32:32.229Z,0.00
2019-05-18T00:33:32.427Z,0.00
2019-05-18T00:34:32.633Z,0.00
2019-05-18T00:35:33.599Z,0.00
2019-05-18T00:36:33.018Z,0.00
2019-05-18T00:37:34.166Z,0.00
2019-05-18T00:38:33.303Z,0.00
2019-05-18T00:39:33.499Z,0.00
2019-05-18T00:40:33.679Z,0.00
2019-05-18T00:41:33.886Z,0.00
2019-05-18T00:42:34.065Z,0.00
2019-05-18T00:43:34.244Z,0.00
2019-05-18T00:44:34.420Z,0.00
2019-05-18T00:45:34.607Z,0.00
2019-05-18T00:46:34.810Z,0.00
2019-05-18T00:47:41.530Z,0.00
2019-05-18T00:48:37.163Z,0.00
2019-05-18T00:49:35.255Z,0.00
2019-05-18T00:50:35.407Z,0.00
2019-05-18T00:51:35.607Z,0.00
2019-05-18T00:52:35.770Z,0.00
2019-05-18T00:53:35.942Z,0.00
2019-05-18T00:54:36.126Z,0.00
2019-05-18T00:55:36.306Z,0.00
2019-05-18T00:56:36.601Z,0.00
2019-05-18T00:57:36.628Z,0.00
2019-05-18T00:58:36.805Z,0.00
2019-05-18T00:59:37.589Z,0.00
2019-05-18T01:00:37.097Z,0.00
2019-05-18T01:01:38.098Z,0.00
2019-05-18T01:02:37.493Z,0.00
2019-05-18T01:03:37.639Z,0.00
2019-05-18T01:04:37.781Z,0.00
2019-05-18T01:05:38.338Z,0.00
2019-05-18T01:06:39.206Z,0.00
2019-05-18T01:07:38.363Z,0.00
2019-05-18T01:08:38.524Z,0.00
2019-05-18T01:09:38.686Z,0.00
2019-05-18T01:10:38.822Z,0.00
2019-05-18T01:11:38.994Z,0.00
2019-05-18T01:12:39.193Z,0.00
2019-05-18T01:13:39.343Z,0.00
2019-05-18T01:14:39.501Z,0.00
2019-05-18T01:15:39.648Z,0.00
2019-05-18T01:16:40.598Z,0.00
2019-05-18T01:17:40.104Z,0.00
2019-05-18T01:18:40.114Z,0.00
2019-05-18T01:19:40.256Z,0.00
2019-05-18T01:20:40.405Z,0.00
2019-05-18T01:21:40.510Z,0.00
2019-05-18T01:22:40.701Z,0.00
2019-05-18T01:23:40.866Z,0.00
2019-05-18T01:24:41.022Z,0.00
2019-05-18T01:25:41.134Z,0.00
2019-05-18T01:26:41.280Z,0.00
2019-05-18T01:27:41.386Z,0.00
2019-05-18T01:28:41.624Z,0.00
2019-05-18T01:29:41.739Z,0.00
2019-05-18T01:30:41.975Z,0.00
2019-05-18T01:31:42.203Z,0.00
2019-05-18T01:32:42.449Z,0.00
2019-05-18T01:33:42.603Z,0.00
2019-05-18T01:34:43.724Z,0.00
2019-05-18T01:35:43.956Z,0.00
2019-05-18T01:36:43.165Z,0.00
2019-05-18T01:37:43.298Z,0.00
2019-05-18T01:38:43.574Z,0.00
2019-05-18T01:39:43.712Z,0.00
2019-05-18T01:40:43.859Z,0.00
2019-05-18T01:41:43.995Z,0.00
2019-05-18T01:42:44.128Z,0.00
2019-05-18T01:43:44.309Z,0.00
2019-05-18T01:44:44.455Z,0.00
2019-05-18T01:45:44.660Z,0.00
2019-05-18T01:46:44.811Z,0.00
2019-05-18T01:47:45.007Z,0.00
2019-05-18T01:48:45.157Z,0.00
2019-05-18T01:49:46.127Z,0.00
2019-05-18T01:50:45.521Z,0.00
2019-05-18T01:51:45.689Z,0.00
2019-05-18T01:52:45.845Z,0.00
2019-05-18T01:53:46.002Z,0.00
2019-05-18T01:54:47.113Z,0.00
2019-05-18T01:55:46.381Z,0.00
2019-05-18T01:56:46.551Z,0.00
2019-05-18T01:57:46.701Z,0.00
2019-05-18T01:58:46.837Z,0.00
2019-05-18T01:59:46.977Z,0.00
2019-05-18T02:00:47.150Z,0.00
2019-05-18T02:01:47.333Z,0.00
2019-05-18T02:02:47.461Z,0.00
2019-05-18T02:03:47.598Z,0.00
2019-05-18T02:04:47.728Z,0.00
2019-05-18T02:05:47.871Z,0.00
2019-05-18T02:06:48.098Z,0.00
2019-05-18T02:07:48.231Z,0.00
2019-05-18T02:08:48.377Z,0.00
2019-05-18T02:09:48.548Z,0.00
2019-05-18T02:10:48.668Z,0.00
2019-05-18T02:11:48.916Z,0.00
2019-05-18T02:12:49.069Z,0.00
2019-05-18T02:13:49.202Z,0.00
2019-05-18T02:14:49.359Z,0.00
2019-05-18T02:15:49.499Z,0.00
2019-05-18T02:16:50.603Z,0.00
2019-05-18T02:17:49.845Z,0.00
2019-05-18T02:18:49.978Z,0.00
2019-05-18T02:19:51.115Z,0.00
2019-05-18T02:20:50.293Z,0.00
2019-05-18T02:21:50.449Z,0.00
2019-05-18T02:22:50.593Z,0.00
2019-05-18T02:23:50.758Z,0.00
2019-05-18T02:24:50.926Z,0.00
2019-05-18T02:25:51.099Z,0.00
2019-05-18T02:26:51.227Z,0.00
2019-05-18T02:27:51.404Z,0.00
2019-05-18T02:28:51.581Z,0.00
2019-05-18T02:29:51.753Z,0.00
2019-05-18T02:30:51.966Z,0.00
2019-05-18T02:31:52.124Z,0.00
2019-05-18T02:32:53.111Z,0.00
2019-05-18T02:33:52.521Z,0.00
2019-05-18T02:34:52.712Z,0.00
2019-05-18T02:35:52.908Z,0.00
2019-05-18T02:36:53.090Z,0.00
2019-05-18T02:37:53.244Z,0.00
2019-05-18T02:38:53.406Z,0.00
2019-05-18T02:39:53.559Z,0.00
2019-05-18T02:40:54.115Z,0.00
2019-05-18T02:41:53.896Z,0.00
2019-05-18T02:42:54.058Z,0.00
2019-05-18T02:43:54.235Z,0.00
2019-05-18T02:44:54.449Z,0.00
2019-05-18T02:45:54.625Z,0.00
2019-05-18T02:46:54.791Z,0.00
2019-05-18T02:47:55.602Z,0.00
2019-05-18T02:48:56.103Z,0.00
2019-05-18T02:49:55.402Z,0.00
2019-05-18T02:50:55.561Z,0.00
2019-05-18T02:51:55.755Z,0.00
2019-05-18T02:52:55.949Z,0.00
2019-05-18T02:53:56.128Z,0.00
2019-05-18T02:54:56.305Z,0.00
2019-05-18T02:55:56.515Z,0.00
2019-05-18T02:56:57.130Z,0.00
2019-05-18T02:57:56.933Z,0.00
2019-05-18T02:58:57.110Z,0.00
2019-05-18T02:59:57.321Z,0.00
2019-05-18T03:00:57.538Z,0.00
2019-05-18T03:01:57.757Z,0.00
2019-05-18T03:02:57.936Z,0.00
2019-05-18T03:03:58.111Z,0.00
2019-05-18T03:04:58.284Z,0.00
2019-05-18T03:05:58.450Z,0.00
2019-05-18T03:06:58.621Z,0.00
2019-05-18T03:07:58.809Z,0.00
2019-05-18T03:08:58.996Z,0.00
2019-05-18T03:09:59.169Z,0.00
2019-05-18T03:10:59.323Z,0.00
2019-05-18T03:11:59.478Z,0.00
2019-05-18T03:13:00.661Z,0.00
2019-05-18T03:13:59.807Z,0.00
2019-05-18T03:15:00.006Z,0.00
2019-05-18T03:16:01.118Z,0.00
2019-05-18T03:17:00.385Z,0.00
2019-05-18T03:18:00.583Z,0.00
2019-05-18T03:19:08.220Z,0.00
2019-05-18T03:20:02.907Z,0.00
2019-05-18T03:21:01.026Z,0.00
2019-05-18T03:22:01.312Z,0.00
2019-05-18T03:23:01.428Z,0.00
2019-05-18T03:24:01.594Z,0.00
2019-05-18T03:25:02.119Z,0.00
2019-05-18T03:26:01.885Z,0.00
2019-05-18T03:27:02.061Z,0.00
2019-05-18T03:28:02.640Z,0.00
2019-05-18T03:29:02.438Z,0.00
2019-05-18T03:30:02.597Z,0.00
2019-05-18T03:31:02.756Z,0.00
2019-05-18T03:32:03.962Z,0.00
2019-05-18T03:33:03.111Z,0.00
2019-05-18T03:34:04.102Z,0.00
2019-05-18T03:35:04.395Z,0.00
2019-05-18T03:36:03.554Z,0.00
2019-05-18T03:37:03.727Z,0.00
2019-05-18T03:38:03.923Z,0.00
2019-05-18T03:39:04.080Z,0.00
2019-05-18T03:40:04.235Z,5.62
2019-05-18T03:41:04.431Z,5.62
2019-05-18T03:42:04.616Z,5.62
2019-05-18T03:43:04.826Z,5.62
2019-05-18T03:44:05.009Z,5.62
2019-05-18T03:45:06.116Z,5.62
2019-05-18T03:46:05.385Z,11.25
2019-05-18T03:47:06.125Z,11.25
2019-05-18T03:48:05.769Z,11.25
2019-05-18T03:49:05.941Z,11.25
2019-05-18T03:50:06.065Z,11.25
2019-05-18T03:51:06.266Z,11.25
2019-05-18T03:52:06.417Z,16.88
2019-05-18T03:53:06.540Z,16.88
2019-05-18T03:54:06.704Z,16.88
2019-05-18T03:55:06.839Z,16.88
2019-05-18T03:56:06.985Z,16.88
2019-05-18T03:57:07.137Z,16.88
2019-05-18T03:58:07.298Z,22.50
2019-05-18T03:59:07.464Z,22.50
2019-05-18T04:00:07.616Z,22.50
2019-05-18T04:01:08.787Z,22.50
2019-05-18T04:02:08.625Z,28.12
2019-05-18T04:03:08.235Z,28.12
2019-05-18T04:04:08.363Z,28.12
2019-05-18T04:05:08.552Z,28.12
2019-05-18T04:06:08.681Z,28.12
2019-05-18T04:07:08.910Z,33.75
2019-05-18T04:08:10.122Z,33.75
2019-05-18T04:09:09.338Z,33.75
2019-05-18T04:10:09.559Z,33.75
2019-05-18T04:11:09.692Z,33.75
2019-05-18T04:12:09.898Z,28.12
2019-05-18T04:13:10.143Z,33.75
2019-05-18T04:14:10.368Z,33.75
2019-05-18T04:15:10.646Z,33.75
2019-05-18T04:16:10.735Z,33.75
2019-05-18T04:17:11.983Z,33.75
2019-05-18T04:18:11.127Z,33.75
2019-05-18T04:19:11.276Z,33.75
2019-05-18T04:20:11.505Z,33.75
2019-05-18T04:21:11.667Z,33.75
2019-05-18T04:22:11.845Z,28.12
2019-05-18T04:23:11.992Z,28.12
2019-05-18T04:24:12.147Z,28.12
2019-05-18T04:25:12.273Z,33.75
2019-05-18T04:26:12.427Z,33.75
2019-05-18T04:27:13.119Z,33.75
2019-05-18T04:28:12.713Z,39.38
2019-05-18T04:29:12.861Z,39.38
2019-05-18T04:30:13.008Z,39.38
2019-05-18T04:31:13.209Z,39.38
2019-05-18T04:32:13.388Z,45.00
2019-05-18T04:33:13.522Z,45.00
2019-05-18T04:34:13.692Z,50.62
2019-05-18T04:35:13.890Z,50.62
2019-05-18T04:36:14.124Z,50.62
2019-05-18T04:37:14.318Z,56.25
2019-05-18T04:38:15.133Z,56.25
2019-05-18T04:39:14.695Z,61.88
2019-05-18T04:40:14.859Z,61.88
2019-05-18T04:41:15.065Z,67.50
2019-05-18T04:42:15.279Z,67.50
2019-05-18T04:43:15.465Z,67.50
2019-05-18T04:44:15.638Z,67.50
2019-05-18T04:45:15.881Z,67.50
2019-05-18T04:46:17.053Z,67.50
2019-05-18T04:47:16.230Z,73.12
2019-05-18T04:48:16.409Z,73.12
2019-05-18T04:49:16.608Z,73.12
2019-05-18T04:50:16.816Z,73.12
2019-05-18T04:51:16.969Z,73.12
2019-05-18T04:52:17.135Z,73.12
2019-05-18T04:53:17.288Z,73.12
2019-05-18T04:54:17.445Z,73.12
2019-05-18T04:55:17.626Z,78.75
2019-05-18T04:56:17.797Z,78.75
2019-05-18T04:57:18.979Z,84.38
2019-05-18T04:58:18.091Z,84.38
2019-05-18T04:59:18.246Z,90.00
2019-05-18T05:00:18.387Z,95.62
2019-05-18T05:01:18.539Z,95.62
2019-05-18T05:02:18.703Z,101.25
2019-05-18T05:03:18.875Z,101.25
2019-05-18T05:04:19.055Z,101.25
2019-05-18T05:05:19.213Z,101.25
2019-05-18T05:06:19.349Z,106.88
2019-05-18T05:07:19.496Z,112.50
2019-05-18T05:08:19.653Z,135.00
2019-05-18T05:09:19.805Z,163.12
2019-05-18T05:10:19.937Z,168.75
2019-05-18T05:11:20.096Z,168.75
2019-05-18T05:12:21.120Z,174.38
2019-05-18T05:13:20.639Z,174.38
2019-05-18T05:14:20.660Z,174.38
2019-05-18T05:15:20.809Z,174.38
2019-05-18T05:16:20.978Z,180.00
2019-05-18T05:17:21.139Z,180.00
2019-05-18T05:18:21.349Z,180.00
2019-05-18T05:19:21.506Z,180.00
2019-05-18T05:20:22.642Z,140.62
2019-05-18T05:21:21.875Z,135.00
2019-05-18T05:22:22.623Z,135.00
2019-05-18T05:23:22.317Z,135.00
2019-05-18T05:24:22.476Z,129.38
2019-05-18T05:25:22.620Z,129.38
2019-05-18T05:26:22.769Z,123.75
2019-05-18T05:27:22.944Z,123.75
2019-05-18T05:28:23.141Z,123.75
2019-05-18T05:29:23.657Z,123.75
2019-05-18T05:30:24.127Z,123.75
2019-05-18T05:31:23.644Z,123.75
2019-05-18T05:32:23.818Z,118.12
2019-05-18T05:33:23.975Z,118.12
2019-05-18T05:34:24.654Z,123.75
2019-05-18T05:35:24.390Z,123.75
2019-05-18T05:36:24.529Z,129.38
2019-05-18T05:37:24.679Z,129.38
2019-05-18T05:38:24.923Z,135.00
2019-05-18T05:39:25.077Z,140.62
2019-05-18T05:40:25.269Z,151.88
2019-05-18T05:41:25.433Z,168.75
2019-05-18T05:42:25.606Z,174.38
2019-05-18T05:43:25.763Z,180.00
2019-05-18T05:44:25.924Z,180.00
2019-05-18T05:45:26.149Z,185.62
2019-05-18T05:46:26.207Z,191.25
2019-05-18T05:47:27.140Z,185.62
2019-05-18T05:48:26.510Z,180.00
2019-05-18T05:49:26.637Z,174.38
2019-05-18T05:50:35.374Z,196.88
2019-05-18T05:51:29.147Z,191.25
2019-05-18T05:52:27.102Z,180.00
2019-05-18T05:53:27.290Z,168.75
2019-05-18T05:54:28.134Z,168.75
2019-05-18T05:55:27.643Z,168.75
2019-05-18T05:56:27.807Z,180.00
2019-05-18T05:57:27.988Z,196.88
2019-05-18T05:58:28.125Z,225.00
2019-05-18T05:59:28.296Z,241.88
2019-05-18T06:00:28.449Z,258.75
2019-05-18T06:01:28.638Z,241.88
2019-05-18T06:02:28.796Z,230.62
2019-05-18T06:03:28.986Z,247.50
2019-05-18T06:04:29.157Z,230.62
2019-05-18T06:05:29.288Z,196.88
2019-05-18T06:06:29.479Z,196.88
2019-05-18T06:07:29.730Z,202.50
2019-05-18T06:08:29.893Z,208.12
2019-05-18T06:09:30.040Z,213.75
2019-05-18T06:10:30.207Z,219.38
2019-05-18T06:11:31.142Z,236.25
2019-05-18T06:12:30.576Z,219.38
2019-05-18T06:13:30.767Z,219.38
2019-05-18T06:14:30.919Z,225.00
2019-05-18T06:15:31.093Z,219.38
2019-05-18T06:16:31.268Z,219.38
2019-05-18T06:17:31.480Z,213.75
2019-05-18T06:18:31.642Z,213.75
2019-05-18T06:19:31.826Z,208.12
2019-05-18T06:20:32.017Z,213.75
2019-05-18T06:21:32.199Z,202.50
2019-05-18T06:22:32.427Z,219.38
2019-05-18T06:23:32.595Z,225.00
2019-05-18T06:24:33.630Z,236.25
2019-05-18T06:25:34.498Z,281.25
2019-05-18T06:26:34.135Z,275.62
2019-05-18T06:27:33.272Z,264.38
2019-05-18T06:28:33.434Z,270.00
2019-05-18T06:29:33.628Z,281.25
2019-05-18T06:30:33.786Z,281.25
2019-05-18T06:31:33.953Z,292.50
2019-05-18T06:32:34.081Z,303.75
2019-05-18T06:33:34.242Z,320.62
2019-05-18T06:34:34.397Z,320.62
2019-05-18T06:35:34.543Z,281.25
2019-05-18T06:36:34.707Z,275.62
2019-05-18T06:37:34.854Z,286.88
2019-05-18T06:38:35.029Z,292.50
2019-05-18T06:39:35.145Z,247.50
2019-05-18T06:40:36.143Z,241.88
2019-05-18T06:41:35.511Z,241.88
2019-05-18T06:42:35.696Z,264.38
2019-05-18T06:43:35.890Z,264.38
2019-05-18T06:44:36.047Z,264.38
2019-05-18T06:45:36.206Z,275.62
2019-05-18T06:46:36.379Z,286.88
2019-05-18T06:47:36.521Z,286.88
2019-05-18T06:48:36.724Z,292.50
2019-05-18T06:49:36.869Z,303.75
2019-05-18T06:50:37.645Z,309.38
2019-05-18T06:51:37.277Z,292.50
2019-05-18T06:52:37.412Z,298.12
2019-05-18T06:53:37.596Z,303.75
2019-05-18T06:54:37.752Z,315.00
2019-05-18T06:55:37.922Z,309.38
2019-05-18T06:56:38.076Z,309.38
2019-05-18T06:57:38.238Z,309.38
2019-05-18T06:58:38.419Z,309.38
2019-05-18T06:59:38.609Z,309.38
2019-05-18T07:00:38.767Z,320.62
2019-05-18T07:01:39.651Z,331.88
2019-05-18T07:02:40.153Z,337.50
2019-05-18T07:03:39.294Z,360.00
2019-05-18T07:04:39.502Z,354.38
2019-05-18T07:05:39.669Z,371.25
2019-05-18T07:06:39.847Z,343.12
2019-05-18T07:07:40.655Z,348.75
2019-05-18T07:08:41.166Z,393.75
2019-05-18T07:09:41.150Z,410.62
2019-05-18T07:10:40.575Z,393.75
2019-05-18T07:11:40.737Z,399.38
2019-05-18T07:12:40.893Z,416.25
2019-05-18T07:13:41.057Z,444.38
2019-05-18T07:14:41.243Z,416.25
2019-05-18T07:15:41.665Z,444.38
2019-05-18T07:16:41.545Z,433.12
2019-05-18T07:17:41.687Z,421.88
2019-05-18T07:18:41.839Z,399.38
2019-05-18T07:19:41.980Z,399.38
2019-05-18T07:20:42.166Z,382.50
2019-05-18T07:21:43.157Z,365.62
2019-05-18T07:22:42.511Z,348.75
2019-05-18T07:23:43.947Z,348.75
2019-05-18T07:24:43.925Z,348.75
2019-05-18T07:25:43.038Z,343.12
2019-05-18T07:26:43.167Z,348.75
2019-05-18T07:27:44.181Z,348.75
2019-05-18T07:28:43.546Z,354.38
2019-05-18T07:29:43.734Z,354.38
2019-05-18T07:30:43.889Z,360.00
2019-05-18T07:31:44.050Z,416.25
2019-05-18T07:32:44.211Z,483.75
2019-05-18T07:33:44.364Z,489.38
2019-05-18T07:34:44.572Z,528.75
2019-05-18T07:35:44.734Z,472.50
2019-05-18T07:36:44.925Z,517.50
2019-05-18T07:37:45.695Z,523.12
2019-05-18T07:38:45.210Z,517.50
2019-05-18T07:39:45.381Z,511.88
2019-05-18T07:40:45.672Z,489.38
2019-05-18T07:41:47.363Z,478.12
2019-05-18T07:42:45.907Z,461.25
2019-05-18T07:43:46.103Z,500.62
2019-05-18T07:44:47.159Z,472.50
2019-05-18T07:45:46.442Z,455.62
2019-05-18T07:46:46.596Z,466.88
2019-05-18T07:47:47.686Z,427.50
2019-05-18T07:48:46.977Z,410.62
2019-05-18T07:49:47.158Z,421.88
2019-05-18T07:50:47.350Z,427.50
2019-05-18T07:51:47.520Z,421.88
2019-05-18T07:52:47.626Z,433.12
2019-05-18T07:53:48.928Z,416.25
2019-05-18T07:54:48.690Z,416.25
2019-05-18T07:55:48.190Z,416.25
2019-05-18T07:56:48.982Z,416.25
2019-05-18T07:57:48.492Z,410.62
2019-05-18T07:58:48.636Z,405.00
2019-05-18T07:59:48.816Z,399.38
2019-05-18T08:00:49.012Z,393.75
2019-05-18T08:01:49.159Z,388.12
2019-05-18T08:02:49.337Z,388.12
2019-05-18T08:03:49.520Z,388.12
2019-05-18T08:04:49.675Z,388.12
2019-05-18T08:05:49.893Z,388.12
2019-05-18T08:06:50.185Z,388.12
2019-05-18T08:07:51.181Z,388.12
2019-05-18T08:08:50.454Z,393.75
2019-05-18T08:09:51.165Z,393.75
2019-05-18T08:10:50.829Z,399.38
2019-05-18T08:11:51.049Z,399.38
2019-05-18T08:12:51.214Z,405.00
2019-05-18T08:13:51.363Z,405.00
2019-05-18T08:14:52.550Z,405.00
2019-05-18T08:15:51.694Z,405.00
2019-05-18T08:16:51.901Z,405.00
2019-05-18T08:17:52.098Z,405.00
2019-05-18T08:18:52.308Z,405.00
2019-05-18T08:19:52.467Z,410.62
2019-05-18T08:20:52.645Z,410.62
2019-05-18T08:21:53.823Z,410.62
2019-05-18T08:22:54.047Z,416.25
2019-05-18T08:23:53.213Z,416.25
2019-05-18T08:24:54.190Z,416.25
2019-05-18T08:25:53.584Z,421.88
2019-05-18T08:26:53.765Z,427.50
2019-05-18T08:27:53.929Z,433.12
2019-05-18T08:28:54.140Z,433.12
2019-05-18T08:29:54.328Z,444.38
2019-05-18T08:30:54.520Z,450.00
2019-05-18T08:31:54.676Z,461.25
2019-05-18T08:32:54.883Z,461.25
2019-05-18T08:33:55.072Z,472.50
2019-05-18T08:34:55.276Z,495.00
2019-05-18T08:35:55.478Z,495.00
2019-05-18T08:36:55.670Z,495.00
2019-05-18T08:37:55.850Z,500.62
2019-05-18T08:38:56.025Z,511.88
2019-05-18T08:39:56.215Z,523.12
2019-05-18T08:40:56.408Z,517.50
2019-05-18T08:41:56.565Z,506.25
2019-05-18T08:42:56.715Z,489.38
2019-05-18T08:43:56.907Z,478.12
2019-05-18T08:44:57.097Z,472.50
2019-05-18T08:45:57.264Z,478.12
2019-05-18T08:46:57.438Z,472.50
2019-05-18T08:47:57.609Z,511.88
2019-05-18T08:48:57.841Z,579.38
2019-05-18T08:49:58.019Z,495.00
2019-05-18T08:50:58.259Z,500.62
2019-05-18T08:52:07.911Z,523.12
2019-05-18T08:53:00.631Z,511.88
2019-05-18T08:53:58.771Z,517.50
2019-05-18T08:54:58.987Z,534.38
2019-05-18T08:55:59.194Z,714.38
2019-05-18T08:56:59.427Z,528.75
2019-05-18T08:57:59.533Z,528.75
2019-05-18T08:58:59.748Z,478.12
2019-05-18T09:00:00.588Z,483.75
2019-05-18T09:01:00.189Z,478.12
2019-05-18T09:02:00.397Z,523.12
2019-05-18T09:03:00.607Z,624.38
2019-05-18T09:04:00.837Z,528.75
2019-05-18T09:05:04.654Z,568.12
2019-05-18T09:06:01.190Z,500.62
2019-05-18T09:07:01.401Z,506.25
2019-05-18T09:08:01.610Z,545.62
2019-05-18T09:09:01.804Z,483.75
2019-05-18T09:10:01.990Z,506.25
2019-05-18T09:11:02.215Z,506.25
2019-05-18T09:12:02.368Z,495.00
2019-05-18T09:13:02.536Z,489.38
2019-05-18T09:14:02.605Z,483.75
2019-05-18T09:15:02.752Z,483.75
2019-05-18T09:16:02.941Z,478.12
2019-05-18T09:17:03.092Z,478.12
2019-05-18T09:18:04.970Z,478.12
2019-05-18T09:19:04.419Z,478.12
2019-05-18T09:20:03.602Z,478.12
2019-05-18T09:21:03.768Z,483.75
2019-05-18T09:22:03.956Z,489.38
2019-05-18T09:23:04.143Z,489.38
2019-05-18T09:24:04.293Z,478.12
2019-05-18T09:25:04.441Z,478.12
2019-05-18T09:26:04.589Z,489.38
2019-05-18T09:27:04.798Z,489.38
2019-05-18T09:28:04.983Z,495.00
2019-05-18T09:29:05.144Z,495.00
2019-05-18T09:30:05.335Z,495.00
2019-05-18T09:31:05.542Z,500.62
2019-05-18T09:32:05.777Z,506.25
2019-05-18T09:33:05.881Z,506.25
2019-05-18T09:34:05.989Z,506.25
2019-05-18T09:35:06.195Z,506.25
2019-05-18T09:36:06.384Z,511.88
2019-05-18T09:37:06.560Z,511.88
2019-05-18T09:38:06.710Z,517.50
2019-05-18T09:39:06.894Z,517.50
2019-05-18T09:40:07.081Z,517.50
2019-05-18T09:41:07.276Z,511.88
2019-05-18T09:42:07.454Z,517.50
2019-05-18T09:43:07.637Z,517.50
2019-05-18T09:44:07.846Z,511.88
2019-05-18T09:45:08.018Z,500.62
2019-05-18T09:46:08.391Z,500.62
2019-05-18T09:47:08.477Z,500.62
2019-05-18T09:48:08.669Z,500.62
2019-05-18T09:49:08.846Z,495.00
2019-05-18T09:50:09.015Z,495.00
2019-05-18T09:51:09.193Z,500.62
2019-05-18T09:52:09.396Z,506.25
2019-05-18T09:53:09.583Z,511.88
2019-05-18T09:54:09.742Z,517.50
2019-05-18T09:55:09.911Z,523.12
2019-05-18T09:56:10.095Z,466.88
2019-05-18T09:57:10.258Z,568.12
2019-05-18T09:58:10.455Z,410.62
2019-05-18T09:59:10.631Z,540.00
2019-05-18T10:00:10.787Z,585.00
2019-05-18T10:01:10.946Z,590.62
2019-05-18T10:02:11.103Z,590.62
2019-05-18T10:03:11.292Z,438.75
2019-05-18T10:04:11.442Z,585.00
2019-05-18T10:05:11.607Z,579.38
2019-05-18T10:06:11.761Z,506.25
2019-05-18T10:07:11.930Z,438.75
2019-05-18T10:08:12.120Z,444.38
2019-05-18T10:09:12.295Z,601.88
2019-05-18T10:10:12.460Z,405.00
2019-05-18T10:11:12.633Z,371.25
2019-05-18T10:12:12.813Z,405.00
2019-05-18T10:13:12.988Z,438.75
2019-05-18T10:14:13.179Z,528.75
2019-05-18T10:15:13.376Z,545.62
2019-05-18T10:16:13.565Z,540.00
2019-05-18T10:17:13.727Z,534.38
2019-05-18T10:18:13.896Z,517.50
2019-05-18T10:19:14.110Z,511.88
2019-05-18T10:20:14.275Z,517.50
2019-05-18T10:21:14.475Z,523.12
2019-05-18T10:22:14.700Z,534.38
2019-05-18T10:23:14.888Z,540.00
2019-05-18T10:24:15.059Z,545.62
2019-05-18T10:25:15.273Z,534.38
2019-05-18T10:26:15.475Z,534.38
2019-05-18T10:27:15.712Z,534.38
2019-05-18T10:28:15.884Z,540.00
2019-05-18T10:29:16.093Z,399.38
2019-05-18T10:30:16.255Z,540.00
2019-05-18T10:31:16.431Z,534.38
2019-05-18T10:32:16.613Z,399.38
2019-05-18T10:33:16.768Z,528.75
2019-05-18T10:34:16.972Z,399.38
2019-05-18T10:35:17.145Z,405.00
2019-05-18T10:36:17.324Z,416.25
2019-05-18T10:37:17.503Z,382.50
2019-05-18T10:38:17.712Z,365.62
2019-05-18T10:39:17.923Z,348.75
2019-05-18T10:40:18.094Z,405.00
2019-05-18T10:41:18.275Z,495.00
2019-05-18T10:42:18.427Z,337.50
2019-05-18T10:43:18.642Z,331.88
2019-05-18T10:44:18.802Z,348.75
2019-05-18T10:45:18.968Z,376.88
2019-05-18T10:46:19.166Z,371.25
2019-05-18T10:47:19.347Z,405.00
2019-05-18T10:48:19.544Z,433.12
2019-05-18T10:49:19.745Z,450.00
2019-05-18T10:50:19.935Z,455.62
2019-05-18T10:51:20.112Z,472.50
2019-05-18T10:52:21.318Z,500.62
2019-05-18T10:53:28.913Z,528.75
2019-05-18T10:54:22.614Z,641.25
2019-05-18T10:55:20.740Z,770.62
2019-05-18T10:56:20.969Z,781.88
2019-05-18T10:57:21.156Z,573.75
2019-05-18T10:58:21.345Z,720.00
2019-05-18T10:59:21.528Z,646.88
2019-05-18T11:00:21.709Z,545.62
2019-05-18T11:01:21.902Z,478.12
2019-05-18T11:02:22.162Z,421.88
2019-05-18T11:03:22.213Z,416.25
2019-05-18T11:04:22.390Z,416.25
2019-05-18T11:05:22.553Z,416.25
2019-05-18T11:06:22.711Z,421.88
2019-05-18T11:07:22.918Z,433.12
2019-05-18T11:08:23.052Z,438.75
2019-05-18T11:09:23.216Z,444.38
2019-05-18T11:10:23.382Z,450.00
2019-05-18T11:11:23.522Z,466.88
2019-05-18T11:12:24.680Z,483.75
2019-05-18T11:13:23.839Z,500.62
2019-05-18T11:14:24.007Z,523.12
2019-05-18T11:15:24.395Z,607.50
2019-05-18T11:16:24.413Z,703.12
2019-05-18T11:17:24.604Z,725.62
2019-05-18T11:18:24.770Z,838.12
2019-05-18T11:19:24.950Z,849.38
2019-05-18T11:20:25.139Z,866.25
2019-05-18T11:21:25.324Z,849.38
2019-05-18T11:22:25.545Z,871.88
2019-05-18T11:23:25.734Z,888.75
2019-05-18T11:24:25.890Z,888.75
2019-05-18T11:25:26.050Z,871.88
2019-05-18T11:26:26.222Z,832.50
2019-05-18T11:27:26.370Z,736.88
2019-05-18T11:28:26.529Z,641.25
2019-05-18T11:29:26.728Z,601.88
2019-05-18T11:30:26.907Z,461.25
2019-05-18T11:31:27.068Z,433.12
2019-05-18T11:32:27.238Z,421.88
2019-05-18T11:33:27.375Z,405.00
2019-05-18T11:34:27.538Z,399.38
2019-05-18T11:35:27.675Z,405.00
2019-05-18T11:36:27.823Z,421.88
2019-05-18T11:37:27.970Z,433.12
2019-05-18T11:38:28.129Z,472.50
2019-05-18T11:39:28.284Z,540.00
2019-05-18T11:40:28.472Z,725.62
2019-05-18T11:41:28.607Z,630.00
2019-05-18T11:42:28.748Z,888.75
2019-05-18T11:43:28.951Z,883.12
2019-05-18T11:44:29.135Z,877.50
2019-05-18T11:45:29.314Z,579.38
2019-05-18T11:46:29.468Z,630.00
2019-05-18T11:47:29.705Z,787.50
2019-05-18T11:48:29.791Z,939.38
2019-05-18T11:49:29.948Z,995.62
2019-05-18T11:50:30.095Z,866.25
2019-05-18T11:51:30.280Z,838.12
2019-05-18T11:52:30.501Z,753.75
2019-05-18T11:53:30.713Z,663.75
2019-05-18T11:54:30.905Z,669.38
2019-05-18T11:55:31.090Z,1012.50
2019-05-18T11:56:31.273Z,821.25
2019-05-18T11:57:31.481Z,703.12
2019-05-18T11:58:31.701Z,945.00
2019-05-18T11:59:31.889Z,973.12
2019-05-18T12:00:32.071Z,894.38
2019-05-18T12:01:32.297Z,613.12
2019-05-18T12:02:32.513Z,793.12
2019-05-18T12:03:32.704Z,618.75
2019-05-18T12:04:32.901Z,770.62
2019-05-18T12:05:33.067Z,973.12
2019-05-18T12:06:33.269Z,675.00
2019-05-18T12:07:33.457Z,618.75
2019-05-18T12:08:33.628Z,686.25
2019-05-18T12:09:33.815Z,658.12
2019-05-18T12:10:33.936Z,658.12
2019-05-18T12:11:34.130Z,669.38
2019-05-18T12:12:34.339Z,680.62
2019-05-18T12:13:34.511Z,697.50
2019-05-18T12:14:35.280Z,720.00
2019-05-18T12:15:34.827Z,855.00
2019-05-18T12:16:35.076Z,1406.25
2019-05-18T12:17:35.238Z,731.25
2019-05-18T12:18:36.278Z,663.75
2019-05-18T12:19:35.525Z,624.38
2019-05-18T12:20:35.691Z,607.50
2019-05-18T12:21:36.302Z,601.88
2019-05-18T12:22:36.796Z,585.00
2019-05-18T12:23:36.200Z,585.00
2019-05-18T12:24:36.353Z,590.62
2019-05-18T12:25:36.505Z,601.88
2019-05-18T12:26:36.680Z,613.12
2019-05-18T12:27:36.897Z,618.75
2019-05-18T12:28:37.065Z,646.88
2019-05-18T12:29:37.229Z,686.25
2019-05-18T12:30:37.407Z,731.25
2019-05-18T12:31:37.591Z,731.25
2019-05-18T12:32:37.752Z,725.62
2019-05-18T12:33:37.902Z,731.25
2019-05-18T12:34:38.778Z,759.38
2019-05-18T12:35:39.277Z,781.88
2019-05-18T12:36:38.561Z,776.25
2019-05-18T12:37:39.288Z,826.88
2019-05-18T12:38:38.922Z,1209.38
2019-05-18T12:39:39.088Z,1108.12
2019-05-18T12:40:39.254Z,1023.75
2019-05-18T12:41:39.450Z,928.12
2019-05-18T12:42:39.615Z,838.12
2019-05-18T12:43:39.800Z,798.75
2019-05-18T12:44:39.986Z,810.00
2019-05-18T12:45:40.152Z,922.50
2019-05-18T12:46:40.349Z,1141.88